createdAt,value
2023-01-09T00:02:33.109Z,14.33
2023-01-09T00:05:20.494Z,14.80
2023-01-09T00:08:07.446Z,14.67
2023-01-09T00:10:53.843Z,12.77
2023-01-09T00:13:40.615Z,15.20
2023-01-09T00:16:28.902Z,19.50
2023-01-09T00:19:15.698Z,14.30
2023-01-09T00:22:02.106Z,13.57
2023-01-09T00:24:49.590Z,15.63
2023-01-09T00:27:36.533Z,17.20
2023-01-09T00:30:23.596Z,14.87
2023-01-09T00:33:13.233Z,16.37
2023-01-09T00:36:00.209Z,14.30
2023-01-09T00:38:46.623Z,12.77
2023-01-09T00:41:45.921Z,23.53
2023-01-09T00:44:36.881Z,15.03
2023-01-09T00:47:26.493Z,15.67
2023-01-09T00:50:18.069Z,16.60
2023-01-09T00:53:13.065Z,13.90
2023-01-09T00:56:05.260Z,15.57
2023-01-09T00:58:53.407Z,17.60
2023-01-09T01:01:40.059Z,17.00
2023-01-09T01:04:44.147Z,17.57
2023-01-09T01:07:41.702Z,16.53
2023-01-09T01:10:28.758Z,17.23
2023-01-09T01:13:16.198Z,19.47
2023-01-09T01:16:05.248Z,19.37
2023-01-09T01:18:52.386Z,16.40
2023-01-09T01:21:39.375Z,18.10
2023-01-09T01:24:27.656Z,15.43
2023-01-09T01:27:15.559Z,18.23
2023-01-09T01:30:02.254Z,16.63
2023-01-09T01:32:49.139Z,17.43
2023-01-09T01:35:37.952Z,16.90
2023-01-09T01:38:24.569Z,16.13
2023-01-09T01:41:12.686Z,15.80
2023-01-09T01:44:01.654Z,16.47
2023-01-09T01:46:48.204Z,22.60
2023-01-09T01:49:35.035Z,19.20
2023-01-09T01:52:22.877Z,16.30
2023-01-09T01:55:11.184Z,16.87
2023-01-09T01:58:05.380Z,15.17
2023-01-09T02:00:51.915Z,16.83
2023-01-09T02:03:40.903Z,13.53
2023-01-09T02:06:28.202Z,20.67
2023-01-09T02:09:19.347Z,15.37
2023-01-09T02:12:17.354Z,22.07
2023-01-09T02:15:10.242Z,18.97
2023-01-09T02:18:15.273Z,15.37
2023-01-09T02:21:11.322Z,13.93
2023-01-09T02:24:12.613Z,16.23
2023-01-09T02:27:46.759Z,19.53
2023-01-09T02:30:41.721Z,16.10
2023-01-09T02:33:40.726Z,17.83
2023-01-09T02:36:32.969Z,18.23
2023-01-09T02:39:27.579Z,18.30
2023-01-09T02:42:18.834Z,19.33
2023-01-09T02:45:06.424Z,20.07
2023-01-09T02:47:54.364Z,17.40
2023-01-09T02:50:52.357Z,16.57
2023-01-09T02:53:58.435Z,20.67
2023-01-09T02:57:07.185Z,21.43
2023-01-09T03:00:09.088Z,21.83
2023-01-09T03:03:03.848Z,17.67
2023-01-09T03:05:56.787Z,16.57
2023-01-09T03:08:49.000Z,19.90
2023-01-09T03:11:41.507Z,19.13
2023-01-09T03:14:31.487Z,21.90
2023-01-09T03:17:27.403Z,19.97
2023-01-09T03:20:18.886Z,19.80
2023-01-09T03:23:08.151Z,16.90
2023-01-09T03:25:54.626Z,22.80
2023-01-09T03:28:41.324Z,23.03
2023-01-09T03:31:28.317Z,22.50
2023-01-09T03:34:14.754Z,21.40
2023-01-09T03:37:04.539Z,21.30
2023-01-09T03:39:51.420Z,21.90
2023-01-09T03:42:38.234Z,27.87
2023-01-09T03:45:24.962Z,24.27
2023-01-09T03:48:11.793Z,25.47
2023-01-09T03:50:58.723Z,25.70
2023-01-09T03:53:46.838Z,21.60
2023-01-09T03:56:33.771Z,20.43
2023-01-09T03:59:20.639Z,22.47
2023-01-09T04:02:07.602Z,22.70
2023-01-09T04:04:54.349Z,22.13
2023-01-09T04:07:41.336Z,19.07
2023-01-09T04:10:29.706Z,19.33
2023-01-09T04:13:16.333Z,22.23
2023-01-09T04:16:03.016Z,19.57
2023-01-09T04:18:49.666Z,25.47
2023-01-09T04:21:36.566Z,20.10
2023-01-09T04:24:24.279Z,23.07
2023-01-09T04:27:13.256Z,17.87
2023-01-09T04:29:59.700Z,17.63
2023-01-09T04:32:46.853Z,20.30
2023-01-09T04:35:33.697Z,15.23
2023-01-09T04:38:20.471Z,18.43
2023-01-09T04:41:07.343Z,19.17
2023-01-09T04:43:55.510Z,19.13
2023-01-09T04:46:42.453Z,21.23
2023-01-09T04:49:29.661Z,21.00
2023-01-09T04:52:16.315Z,19.03
2023-01-09T04:55:05.738Z,24.30
2023-01-09T04:57:52.506Z,22.47
2023-01-09T05:00:41.328Z,26.17
2023-01-09T05:03:28.430Z,24.60
2023-01-09T05:06:15.361Z,19.30
2023-01-09T05:09:03.044Z,23.67
2023-01-09T05:11:50.679Z,19.23
2023-01-09T05:14:37.335Z,22.57
2023-01-09T05:17:25.460Z,21.87
2023-01-09T05:20:12.324Z,23.57
2023-01-09T05:22:59.108Z,24.17
2023-01-09T05:25:45.885Z,19.07
2023-01-09T05:28:32.470Z,18.37
2023-01-09T05:31:19.266Z,21.43
2023-01-09T05:34:07.329Z,19.10
2023-01-09T05:36:54.056Z,20.87
2023-01-09T05:39:41.059Z,25.17
2023-01-09T05:42:27.935Z,29.87
2023-01-09T05:45:14.773Z,42.53
2023-01-09T05:48:01.582Z,34.50
2023-01-09T05:50:49.811Z,29.77
2023-01-09T05:53:36.605Z,30.10
2023-01-09T05:56:23.218Z,24.67
2023-01-09T05:59:10.176Z,32.50
2023-01-09T06:01:56.917Z,39.00
2023-01-09T06:04:43.981Z,45.53
2023-01-09T06:07:31.979Z,24.07
2023-01-09T06:10:18.979Z,24.67
2023-01-09T06:13:05.684Z,18.93
2023-01-09T06:15:53.972Z,33.90
2023-01-09T06:18:40.989Z,24.63
2023-01-09T06:21:29.603Z,20.07
2023-01-09T06:24:17.883Z,23.83
2023-01-09T06:27:06.713Z,17.83
2023-01-09T06:29:53.594Z,18.07
2023-01-09T06:32:41.369Z,19.97
2023-01-09T06:35:28.312Z,22.07
2023-01-09T06:38:15.065Z,21.57
2023-01-09T06:41:03.301Z,20.23
2023-01-09T06:43:49.959Z,22.73
2023-01-09T06:46:36.768Z,16.93
2023-01-09T06:49:24.965Z,22.30
2023-01-09T06:52:11.346Z,17.07
2023-01-09T06:54:58.168Z,19.87
2023-01-09T06:57:46.765Z,17.93
2023-01-09T07:00:33.286Z,18.60
2023-01-09T07:03:22.224Z,16.03
2023-01-09T07:06:08.975Z,20.60
2023-01-09T07:08:55.543Z,20.90
2023-01-09T07:11:42.662Z,28.30
2023-01-09T07:14:30.504Z,19.13
2023-01-09T07:17:17.215Z,18.20
2023-01-09T07:20:04.698Z,20.30
2023-01-09T07:22:51.228Z,19.40
2023-01-09T07:25:38.164Z,21.03
2023-01-09T07:28:25.008Z,19.07
2023-01-09T07:31:13.138Z,16.90
2023-01-09T07:33:59.895Z,20.20
2023-01-09T07:36:48.836Z,22.87
2023-01-09T07:39:35.532Z,21.50
2023-01-09T07:42:22.385Z,19.77
2023-01-09T07:45:10.123Z,21.23
2023-01-09T07:47:58.219Z,19.93
2023-01-09T07:50:44.945Z,22.00
2023-01-09T07:53:31.760Z,21.53
2023-01-09T07:56:18.541Z,24.37
2023-01-09T07:59:05.427Z,21.77
2023-01-09T08:01:52.401Z,23.67
2023-01-09T08:04:40.486Z,17.77
2023-01-09T08:07:26.953Z,19.97
2023-01-09T08:10:14.039Z,16.60
2023-01-09T08:13:00.844Z,18.40
2023-01-09T08:15:47.597Z,16.87
2023-01-09T08:18:34.322Z,17.40
2023-01-09T08:21:22.581Z,21.20
2023-01-09T08:24:11.054Z,19.50
2023-01-09T08:26:57.458Z,23.20
2023-01-09T08:29:44.265Z,19.07
2023-01-09T08:32:31.111Z,20.97
2023-01-09T08:35:18.034Z,26.33
2023-01-09T08:38:06.212Z,21.50
2023-01-09T08:40:52.894Z,18.60
2023-01-09T08:43:57.175Z,18.40
2023-01-09T08:47:01.768Z,21.87
2023-01-09T08:49:48.477Z,61.40
2023-01-09T08:52:35.278Z,17.40
2023-01-09T08:55:23.387Z,20.83
2023-01-09T08:58:10.272Z,17.67
2023-01-09T09:00:58.979Z,19.43
2023-01-09T09:03:45.863Z,17.13
2023-01-09T09:06:32.644Z,16.43
2023-01-09T09:09:19.535Z,17.50
2023-01-09T09:12:08.330Z,20.43
2023-01-09T09:15:12.625Z,18.90
2023-01-09T09:18:01.829Z,17.17
2023-01-09T09:20:49.491Z,20.37
2023-01-09T09:23:36.332Z,17.10
2023-01-09T09:26:23.027Z,17.47
2023-01-09T09:29:11.924Z,17.67
2023-01-09T09:32:00.747Z,22.90
2023-01-09T09:34:47.413Z,20.40
2023-01-09T09:37:34.266Z,21.73
2023-01-09T09:40:27.755Z,19.10
2023-01-09T09:43:49.136Z,17.97
2023-01-09T09:46:44.684Z,20.57
2023-01-09T09:49:41.323Z,21.57
2023-01-09T09:52:36.438Z,23.53
2023-01-09T09:55:30.455Z,20.60
2023-01-09T09:58:26.134Z,15.90
2023-01-09T10:01:20.240Z,18.73
2023-01-09T10:04:14.229Z,19.93
2023-01-09T10:07:06.244Z,18.07
2023-01-09T10:09:55.403Z,19.10
2023-01-09T10:12:52.302Z,17.43
2023-01-09T10:15:46.877Z,22.80
2023-01-09T10:18:43.977Z,15.03
2023-01-09T10:21:41.965Z,20.53
2023-01-09T10:24:42.323Z,18.47
2023-01-09T10:27:41.625Z,23.30
2023-01-09T10:30:35.175Z,17.77
2023-01-09T10:33:35.696Z,19.90
2023-01-09T10:36:45.561Z,19.77
2023-01-09T10:39:45.105Z,18.20
2023-01-09T10:42:38.348Z,18.70
2023-01-09T10:45:30.421Z,23.33
2023-01-09T10:48:22.770Z,18.43
2023-01-09T10:51:19.810Z,18.70
2023-01-09T10:54:13.855Z,20.67
2023-01-09T10:57:11.817Z,15.87
2023-01-09T10:59:58.598Z,19.37
2023-01-09T11:02:45.716Z,19.73
2023-01-09T11:05:32.924Z,22.00
2023-01-09T11:08:26.708Z,14.13
2023-01-09T11:11:13.988Z,16.73
2023-01-09T11:14:08.473Z,17.53
2023-01-09T11:16:57.560Z,14.67
2023-01-09T11:20:02.211Z,14.93
2023-01-09T11:22:51.210Z,11.13
2023-01-09T11:25:37.686Z,14.80
2023-01-09T11:28:25.063Z,13.03
2023-01-09T11:31:25.973Z,11.43
2023-01-09T11:34:20.636Z,11.27
2023-01-09T11:37:10.399Z,9.33
2023-01-09T11:39:59.164Z,10.57
2023-01-09T11:43:15.662Z,8.93
2023-01-09T11:46:05.764Z,8.53
2023-01-09T11:48:57.885Z,10.87
2023-01-09T11:51:45.563Z,10.80
2023-01-09T11:54:35.543Z,11.70
2023-01-09T11:57:23.846Z,8.53
2023-01-09T12:00:25.788Z,7.10
2023-01-09T12:03:22.894Z,7.50
2023-01-09T12:06:20.589Z,8.50
2023-01-09T12:09:09.075Z,8.43
2023-01-09T12:12:01.574Z,6.73
2023-01-09T12:15:01.355Z,8.63
2023-01-09T12:18:09.137Z,6.90
2023-01-09T12:21:08.829Z,6.30
2023-01-09T12:24:07.206Z,7.47
2023-01-09T12:27:09.246Z,6.93
2023-01-09T12:30:11.731Z,6.93
2023-01-09T12:33:13.618Z,11.37
2023-01-09T12:36:12.439Z,9.33
2023-01-09T12:39:08.939Z,8.93
2023-01-09T12:42:28.319Z,7.53
2023-01-09T12:45:34.144Z,5.27
2023-01-09T12:48:36.460Z,7.77
2023-01-09T12:51:32.457Z,6.70
2023-01-09T12:54:28.179Z,5.67
2023-01-09T12:57:20.711Z,8.63
2023-01-09T13:00:15.279Z,3.37
2023-01-09T13:03:12.588Z,9.73
2023-01-09T13:05:59.980Z,2.10
2023-01-09T13:08:52.396Z,5.50
2023-01-09T13:11:45.833Z,7.50
2023-01-09T13:14:47.078Z,9.57
2023-01-09T13:17:40.028Z,3.93
2023-01-09T13:20:33.994Z,7.67
2023-01-09T13:23:27.611Z,2.43
2023-01-09T13:26:18.192Z,4.47
2023-01-09T13:29:16.425Z,2.17
2023-01-09T13:32:27.153Z,5.40
2023-01-09T13:35:16.097Z,6.43
2023-01-09T13:38:02.943Z,4.23
2023-01-09T13:41:23.095Z,6.53
2023-01-09T13:44:25.132Z,1.90
2023-01-09T13:47:21.298Z,8.20
2023-01-09T13:50:31.949Z,7.27
2023-01-09T13:53:43.881Z,5.07
2023-01-09T13:56:30.469Z,5.27
2023-01-09T13:59:29.828Z,4.63
2023-01-09T14:02:50.181Z,6.83
2023-01-09T14:06:17.650Z,4.83
2023-01-09T14:09:18.096Z,4.30
2023-01-09T14:12:07.398Z,5.23
2023-01-09T14:14:58.734Z,3.77
2023-01-09T14:17:45.268Z,3.37
2023-01-09T14:20:36.778Z,5.67
2023-01-09T14:23:46.107Z,4.77
2023-01-09T14:26:45.239Z,7.43
2023-01-09T14:29:40.294Z,4.33
2023-01-09T14:32:44.486Z,6.47
2023-01-09T14:35:43.697Z,6.03
2023-01-09T14:38:33.228Z,3.47
2023-01-09T14:41:44.439Z,4.83
2023-01-09T14:44:34.073Z,5.13
2023-01-09T14:47:29.535Z,3.23
2023-01-09T14:50:23.300Z,6.33
2023-01-09T14:53:14.399Z,7.13
2023-01-09T14:56:06.057Z,5.07
2023-01-09T14:59:05.077Z,5.03
2023-01-09T15:01:55.482Z,5.37
2023-01-09T15:04:43.565Z,5.23
2023-01-09T15:07:34.914Z,6.97
2023-01-09T15:10:24.423Z,3.63
2023-01-09T15:13:17.031Z,5.77
2023-01-09T15:16:07.110Z,5.40
2023-01-09T15:18:57.599Z,6.47
2023-01-09T15:21:57.955Z,6.83
2023-01-09T15:24:46.100Z,6.53
2023-01-09T15:27:32.637Z,2.70
2023-01-09T15:30:23.903Z,5.43
2023-01-09T15:33:13.388Z,5.90
2023-01-09T15:36:03.193Z,6.40
2023-01-09T15:38:51.741Z,8.50
2023-01-09T15:41:57.292Z,8.83
2023-01-09T15:44:46.910Z,8.33
2023-01-09T15:47:33.916Z,8.20
2023-01-09T15:50:27.738Z,10.57
2023-01-09T15:53:18.307Z,6.37
2023-01-09T15:56:17.427Z,6.60
2023-01-09T15:59:24.694Z,7.17
2023-01-09T16:02:33.345Z,8.43
2023-01-09T16:05:21.184Z,5.70
2023-01-09T16:08:20.751Z,5.80
2023-01-09T16:11:10.724Z,7.30
2023-01-09T16:14:02.506Z,6.73
2023-01-09T16:16:52.284Z,5.03
2023-01-09T16:19:48.038Z,6.00
2023-01-09T16:22:36.035Z,6.17
2023-01-09T16:25:29.756Z,4.63
2023-01-09T16:28:21.248Z,6.97
2023-01-09T16:31:20.622Z,3.97
2023-01-09T16:34:13.469Z,7.27
2023-01-09T16:36:59.954Z,5.17
2023-01-09T16:40:22.973Z,8.07
2023-01-09T16:43:11.637Z,9.10
2023-01-09T16:45:58.251Z,9.97
2023-01-09T16:48:45.013Z,5.63
2023-01-09T16:51:33.091Z,8.00
2023-01-09T16:54:20.339Z,4.63
2023-01-09T16:57:07.137Z,5.40
2023-01-09T16:59:53.695Z,8.73
2023-01-09T17:02:40.593Z,6.80
2023-01-09T17:05:27.121Z,10.17
2023-01-09T17:08:22.535Z,7.07
2023-01-09T17:11:19.696Z,5.80
2023-01-09T17:14:07.525Z,9.33
2023-01-09T17:16:54.065Z,7.43
2023-01-09T17:19:41.274Z,11.40
2023-01-09T17:22:27.977Z,5.43
2023-01-09T17:25:34.539Z,8.97
2023-01-09T17:28:34.800Z,7.87
2023-01-09T17:31:23.233Z,6.07
2023-01-09T17:34:11.385Z,9.67
2023-01-09T17:36:58.489Z,5.87
2023-01-09T17:39:46.194Z,6.57
2023-01-09T17:42:35.927Z,10.73
2023-01-09T17:45:23.785Z,6.90
2023-01-09T17:48:17.852Z,9.63
2023-01-09T17:51:04.930Z,8.33
2023-01-09T17:53:51.969Z,8.40
2023-01-09T17:56:40.724Z,6.20
2023-01-09T17:59:30.326Z,13.57
2023-01-09T18:02:18.698Z,8.73
2023-01-09T18:05:05.647Z,9.87
2023-01-09T18:07:52.740Z,6.97
2023-01-09T18:10:40.517Z,10.17
2023-01-09T18:13:27.427Z,6.53
2023-01-09T18:16:17.480Z,9.83
2023-01-09T18:19:04.824Z,5.30
2023-01-09T18:21:51.655Z,7.20
2023-01-09T18:24:38.419Z,6.23
2023-01-09T18:27:25.526Z,5.63
2023-01-09T18:30:13.227Z,5.03
2023-01-09T18:33:01.440Z,4.47
2023-01-09T18:35:48.128Z,7.40
2023-01-09T18:38:35.671Z,5.37
2023-01-09T18:41:23.352Z,6.67
2023-01-09T18:44:11.108Z,6.40
2023-01-09T18:47:00.379Z,8.70
2023-01-09T18:49:55.111Z,6.97
2023-01-09T18:52:50.945Z,7.17
2023-01-09T18:55:42.112Z,8.67
2023-01-09T18:58:31.948Z,10.07
2023-01-09T19:01:22.195Z,7.33
2023-01-09T19:04:11.283Z,9.50
2023-01-09T19:07:01.677Z,6.13
2023-01-09T19:09:49.940Z,11.03
2023-01-09T19:12:37.850Z,8.17
2023-01-09T19:15:25.836Z,7.17
2023-01-09T19:18:14.552Z,5.37
2023-01-09T19:21:03.185Z,14.27
2023-01-09T19:23:52.281Z,9.67
2023-01-09T19:26:39.754Z,6.03
2023-01-09T19:29:28.137Z,5.40
2023-01-09T19:32:15.602Z,6.03
2023-01-09T19:35:02.639Z,7.60
2023-01-09T19:37:50.663Z,7.93
2023-01-09T19:40:39.642Z,4.27
2023-01-09T19:43:30.512Z,5.53
2023-01-09T19:46:19.994Z,3.77
2023-01-09T19:49:09.011Z,4.83
2023-01-09T19:51:56.551Z,4.63
2023-01-09T19:54:43.320Z,3.20
2023-01-09T19:57:32.215Z,5.53
2023-01-09T20:00:19.242Z,6.10
2023-01-09T20:03:05.906Z,3.70
2023-01-09T20:05:52.473Z,6.73
2023-01-09T20:08:40.471Z,8.17
2023-01-09T20:11:30.370Z,4.37
2023-01-09T20:14:20.240Z,4.57
2023-01-09T20:17:06.913Z,5.13
2023-01-09T20:19:53.599Z,6.57
2023-01-09T20:22:40.381Z,6.53
2023-01-09T20:25:27.623Z,7.57
2023-01-09T20:28:14.773Z,4.40
2023-01-09T20:31:05.799Z,4.00
2023-01-09T20:33:52.447Z,3.10
2023-01-09T20:36:40.032Z,7.33
2023-01-09T20:39:26.743Z,7.93
2023-01-09T20:42:13.443Z,4.60
2023-01-09T20:45:01.255Z,4.97
2023-01-09T20:47:50.522Z,3.10
2023-01-09T20:50:37.095Z,5.07
2023-01-09T20:53:23.975Z,5.47
2023-01-09T20:56:10.661Z,3.77
2023-01-09T20:58:57.819Z,4.40
2023-01-09T21:01:44.837Z,7.57
2023-01-09T21:04:32.700Z,3.77
2023-01-09T21:07:19.444Z,6.60
2023-01-09T21:10:07.515Z,3.23
2023-01-09T21:12:54.417Z,3.33
2023-01-09T21:15:41.876Z,4.00
2023-01-09T21:18:29.237Z,3.60
2023-01-09T21:21:19.432Z,2.27
2023-01-09T21:24:08.456Z,5.37
2023-01-09T21:26:54.904Z,2.60
2023-01-09T21:29:41.922Z,2.57
2023-01-09T21:32:30.009Z,5.57
2023-01-09T21:35:16.825Z,5.83
2023-01-09T21:38:04.777Z,6.37
2023-01-09T21:40:52.052Z,3.57
2023-01-09T21:43:56.404Z,3.63
2023-01-09T21:46:57.680Z,3.23
2023-01-09T21:49:45.483Z,3.13
2023-01-09T21:52:32.465Z,3.17
2023-01-09T21:55:20.528Z,4.83
2023-01-09T21:58:07.181Z,5.00
2023-01-09T22:01:00.485Z,3.53
2023-01-09T22:03:46.799Z,3.40
2023-01-09T22:06:33.453Z,5.40
2023-01-09T22:09:20.347Z,3.47
2023-01-09T22:12:08.545Z,2.90
2023-01-09T22:14:55.440Z,2.80
2023-01-09T22:17:42.095Z,2.43
2023-01-09T22:20:28.840Z,3.87
2023-01-09T22:23:15.964Z,3.20
2023-01-09T22:26:08.279Z,6.47
2023-01-09T22:29:11.310Z,2.17
2023-01-09T22:31:58.984Z,2.73
2023-01-09T22:34:45.680Z,4.37
2023-01-09T22:37:32.490Z,6.00
2023-01-09T22:40:19.348Z,3.87
2023-01-09T22:43:06.368Z,4.37
2023-01-09T22:45:54.211Z,11.60
2023-01-09T22:48:42.133Z,2.77
2023-01-09T22:51:28.748Z,2.10
2023-01-09T22:54:15.354Z,2.43
2023-01-09T22:57:01.872Z,3.00
2023-01-09T22:59:48.752Z,3.70
2023-01-09T23:02:37.278Z,4.73
2023-01-09T23:05:23.847Z,3.23
2023-01-09T23:08:10.604Z,2.83
2023-01-09T23:10:57.784Z,11.27
2023-01-09T23:13:44.581Z,2.07
2023-01-09T23:16:31.344Z,2.90
2023-01-09T23:19:19.648Z,3.00
2023-01-09T23:22:06.450Z,6.93
2023-01-09T23:24:53.978Z,2.57
2023-01-09T23:27:40.733Z,4.60
2023-01-09T23:30:27.654Z,2.67
2023-01-09T23:33:16.632Z,4.40
2023-01-09T23:36:04.935Z,9.23
2023-01-09T23:38:51.742Z,2.30
2023-01-09T23:42:05.014Z,3.27
2023-01-09T23:44:51.384Z,2.30
2023-01-09T23:47:38.120Z,5.10
2023-01-09T23:50:24.950Z,4.53
2023-01-09T23:53:12.961Z,2.33
2023-01-09T23:56:01.308Z,4.53
2023-01-09T23:58:48.176Z,5.13
